sensor_id;sensor_type;location;lat;lon;timestamp;P1;durP1;ratioP1;P2;durP2;ratioP2
54881;SDS011;40775;51.448;4.742;2023-05-07T15:08:28;11.02;;;6.80;;
54881;SDS011;40775;51.448;4.742;2023-05-07T15:10:56;11.55;;;6.82;;
54881;SDS011;40775;51.448;4.742;2023-05-07T15:13:23;9.65;;;5.35;;
54881;SDS011;40775;51.448;4.742;2023-05-07T15:15:51;10.02;;;5.82;;
54881;SDS011;40775;51.448;4.742;2023-05-07T15:18:18;12.38;;;6.50;;
54881;SDS011;40775;51.448;4.742;2023-05-07T15:20:48;8.90;;;5.93;;
54881;SDS011;40775;51.448;4.742;2023-05-07T15:23:15;8.75;;;5.22;;
54881;SDS011;40775;51.448;4.742;2023-05-07T15:25:42;9.45;;;5.63;;
54881;SDS011;40775;51.448;4.742;2023-05-07T15:28:09;10.43;;;6.30;;
54881;SDS011;40775;51.448;4.742;2023-05-07T15:30:36;8.38;;;5.47;;
54881;SDS011;40775;51.448;4.742;2023-05-07T15:33:03;11.30;;;5.80;;
54881;SDS011;40775;51.448;4.742;2023-05-07T15:35:31;7.40;;;5.28;;
54881;SDS011;40775;51.448;4.742;2023-05-07T15:37:58;9.52;;;5.35;;
54881;SDS011;40775;51.448;4.742;2023-05-07T15:40:25;8.63;;;5.35;;
54881;SDS011;40775;51.448;4.742;2023-05-07T15:42:53;7.97;;;4.90;;
54881;SDS011;40775;51.448;4.742;2023-05-07T15:45:22;9.35;;;5.18;;
54881;SDS011;40775;51.448;4.742;2023-05-07T15:47:50;8.32;;;5.03;;
54881;SDS011;40775;51.448;4.742;2023-05-07T15:50:17;8.30;;;4.88;;
54881;SDS011;40775;51.448;4.742;2023-05-07T15:52:44;8.02;;;3.83;;
54881;SDS011;40775;51.448;4.742;2023-05-07T15:55:12;4.50;;;3.03;;
54881;SDS011;40775;51.448;4.742;2023-05-07T15:57:40;4.97;;;2.75;;
54881;SDS011;40775;51.448;4.742;2023-05-07T16:00:07;4.88;;;3.17;;
54881;SDS011;40775;51.448;4.742;2023-05-07T16:02:37;5.68;;;3.17;;
54881;SDS011;40775;51.448;4.742;2023-05-07T16:05:05;4.82;;;2.72;;
54881;SDS011;40775;51.448;4.742;2023-05-07T16:07:36;6.22;;;2.95;;
54881;SDS011;40775;51.448;4.742;2023-05-07T16:10:03;5.32;;;3.22;;
54881;SDS011;40775;51.448;4.742;2023-05-07T16:12:33;6.40;;;4.13;;
54881;SDS011;40775;51.448;4.742;2023-05-07T16:15:00;6.10;;;3.80;;
54881;SDS011;40775;51.448;4.742;2023-05-07T16:17:28;7.22;;;4.05;;
54881;SDS011;40775;51.448;4.742;2023-05-07T16:19:55;6.70;;;4.43;;
54881;SDS011;40775;51.448;4.742;2023-05-07T16:22:24;6.70;;;4.15;;
54881;SDS011;40775;51.448;4.742;2023-05-07T16:24:52;7.20;;;4.25;;
54881;SDS011;40775;51.448;4.742;2023-05-07T16:27:19;6.65;;;4.53;;
54881;SDS011;40775;51.448;4.742;2023-05-07T16:29:46;4.53;;;3.20;;
54881;SDS011;40775;51.448;4.742;2023-05-07T16:32:14;6.47;;;4.10;;
54881;SDS011;40775;51.448;4.742;2023-05-07T16:34:41;6.25;;;3.22;;
54881;SDS011;40775;51.448;4.742;2023-05-07T16:37:08;8.50;;;3.17;;
54881;SDS011;40775;51.448;4.742;2023-05-07T16:39:35;8.90;;;3.55;;
54881;SDS011;40775;51.448;4.742;2023-05-07T16:42:03;6.15;;;3.50;;
54881;SDS011;40775;51.448;4.742;2023-05-07T16:44:30;5.95;;;3.03;;
54881;SDS011;40775;51.448;4.742;2023-05-07T16:46:58;4.95;;;2.85;;
54881;SDS011;40775;51.448;4.742;2023-05-07T16:49:25;8.57;;;3.03;;
54881;SDS011;40775;51.448;4.742;2023-05-07T16:51:52;5.88;;;2.63;;
54881;SDS011;40775;51.448;4.742;2023-05-07T16:54:19;4.60;;;2.72;;
54881;SDS011;40775;51.448;4.742;2023-05-07T16:56:46;4.15;;;2.50;;
54881;SDS011;40775;51.448;4.742;2023-05-07T16:59:13;3.97;;;2.33;;
54881;SDS011;40775;51.448;4.742;2023-05-07T17:01:40;3.20;;;2.08;;
54881;SDS011;40775;51.448;4.742;2023-05-07T17:04:08;2.58;;;1.65;;
54881;SDS011;40775;51.448;4.742;2023-05-07T17:06:35;3.20;;;1.70;;
54881;SDS011;40775;51.448;4.742;2023-05-07T17:09:02;2.85;;;1.77;;
54881;SDS011;40775;51.448;4.742;2023-05-07T17:11:30;3.35;;;1.95;;
54881;SDS011;40775;51.448;4.742;2023-05-07T17:13:59;3.13;;;1.85;;
54881;SDS011;40775;51.448;4.742;2023-05-07T17:16:28;2.47;;;1.65;;
54881;SDS011;40775;51.448;4.742;2023-05-07T17:18:56;5.00;;;2.13;;
54881;SDS011;40775;51.448;4.742;2023-05-07T17:21:23;5.68;;;2.60;;
54881;SDS011;40775;51.448;4.742;2023-05-07T17:23:50;3.10;;;1.63;;
54881;SDS011;40775;51.448;4.742;2023-05-07T17:26:17;5.22;;;2.47;;
54881;SDS011;40775;51.448;4.742;2023-05-07T17:28:44;3.38;;;2.05;;
54881;SDS011;40775;51.448;4.742;2023-05-07T17:31:11;4.20;;;2.28;;
54881;SDS011;40775;51.448;4.742;2023-05-07T17:33:38;3.00;;;1.92;;
54881;SDS011;40775;51.448;4.742;2023-05-07T17:36:05;3.72;;;2.33;;
54881;SDS011;40775;51.448;4.742;2023-05-07T17:38:33;3.33;;;2.35;;
54881;SDS011;40775;51.448;4.742;2023-05-07T17:41:01;3.63;;;1.85;;
54881;SDS011;40775;51.448;4.742;2023-05-07T17:43:28;2.78;;;1.63;;
54881;SDS011;40775;51.448;4.742;2023-05-07T17:45:55;4.30;;;2.03;;
54881;SDS011;40775;51.448;4.742;2023-05-07T17:48:22;4.15;;;1.50;;
54881;SDS011;40775;51.448;4.742;2023-05-07T17:50:50;7.45;;;1.58;;
54881;SDS011;40775;51.448;4.742;2023-05-07T17:53:17;3.00;;;1.33;;
54881;SDS011;40775;51.448;4.742;2023-05-07T17:55:44;2.30;;;1.40;;
54881;SDS011;40775;51.448;4.742;2023-05-07T17:58:12;2.97;;;1.30;;
54881;SDS011;40775;51.448;4.742;2023-05-07T18:00:39;2.28;;;1.25;;
54881;SDS011;40775;51.448;4.742;2023-05-07T18:03:07;4.63;;;2.30;;
54881;SDS011;40775;51.448;4.742;2023-05-07T18:05:35;5.35;;;2.90;;
54881;SDS011;40775;51.448;4.742;2023-05-07T18:08:07;3.15;;;1.75;;
54881;SDS011;40775;51.448;4.742;2023-05-07T18:10:35;7.05;;;2.10;;
54881;SDS011;40775;51.448;4.742;2023-05-07T18:13:02;4.32;;;1.83;;
54881;SDS011;40775;51.448;4.742;2023-05-07T18:15:29;7.32;;;2.08;;
54881;SDS011;40775;51.448;4.742;2023-05-07T18:17:56;3.60;;;2.03;;
54881;SDS011;40775;51.448;4.742;2023-05-07T18:20:24;2.08;;;1.25;;
54881;SDS011;40775;51.448;4.742;2023-05-07T18:22:51;3.65;;;1.92;;
54881;SDS011;40775;51.448;4.742;2023-05-07T18:25:18;5.05;;;1.40;;
54881;SDS011;40775;51.448;4.742;2023-05-07T18:27:45;3.22;;;1.70;;
54881;SDS011;40775;51.448;4.742;2023-05-07T18:30:13;2.75;;;1.30;;
54881;SDS011;40775;51.448;4.742;2023-05-07T18:32:40;4.13;;;1.40;;
54881;SDS011;40775;51.448;4.742;2023-05-07T18:35:08;2.80;;;1.30;;
54881;SDS011;40775;51.448;4.742;2023-05-07T18:37:35;2.70;;;1.27;;
54881;SDS011;40775;51.448;4.742;2023-05-07T18:40:03;3.17;;;1.75;;
54881;SDS011;40775;51.448;4.742;2023-05-07T18:42:31;2.30;;;1.48;;
54881;SDS011;40775;51.448;4.742;2023-05-07T18:45:02;2.65;;;1.50;;
54881;SDS011;40775;51.448;4.742;2023-05-07T18:47:29;2.78;;;1.63;;
54881;SDS011;40775;51.448;4.742;2023-05-07T18:49:57;2.80;;;1.60;;
54881;SDS011;40775;51.448;4.742;2023-05-07T18:52:26;3.35;;;1.85;;
54881;SDS011;40775;51.448;4.742;2023-05-07T18:54:54;3.50;;;1.95;;
54881;SDS011;40775;51.448;4.742;2023-05-07T18:57:21;4.30;;;1.90;;
54881;SDS011;40775;51.448;4.742;2023-05-07T18:59:51;3.28;;;1.90;;
54881;SDS011;40775;51.448;4.742;2023-05-07T19:02:19;3.72;;;1.88;;
54881;SDS011;40775;51.448;4.742;2023-05-07T19:04:47;4.18;;;2.25;;
54881;SDS011;40775;51.448;4.742;2023-05-07T19:07:15;5.22;;;2.15;;
54881;SDS011;40775;51.448;4.742;2023-05-07T19:09:42;3.70;;;2.22;;
54881;SDS011;40775;51.448;4.742;2023-05-07T19:12:26;1.98;;;1.42;;
54881;SDS011;40775;51.448;4.742;2023-05-07T19:14:53;4.85;;;2.08;;
54881;SDS011;40775;51.448;4.742;2023-05-07T19:17:21;7.50;;;2.85;;
54881;SDS011;40775;51.448;4.742;2023-05-07T19:19:48;6.03;;;2.20;;
54881;SDS011;40775;51.448;4.742;2023-05-07T19:22:16;4.68;;;2.03;;
54881;SDS011;40775;51.448;4.742;2023-05-07T19:24:43;3.40;;;2.08;;
54881;SDS011;40775;51.448;4.742;2023-05-07T19:27:10;3.17;;;2.03;;
54881;SDS011;40775;51.448;4.742;2023-05-07T19:29:38;6.25;;;3.15;;
54881;SDS011;40775;51.448;4.742;2023-05-07T19:32:06;4.10;;;2.53;;
54881;SDS011;40775;51.448;4.742;2023-05-07T19:34:35;2.25;;;1.45;;
54881;SDS011;40775;51.448;4.742;2023-05-07T19:37:02;6.72;;;1.92;;
54881;SDS011;40775;51.448;4.742;2023-05-07T19:39:30;2.90;;;1.55;;
54881;SDS011;40775;51.448;4.742;2023-05-07T19:41:57;4.72;;;2.13;;
54881;SDS011;40775;51.448;4.742;2023-05-07T19:44:24;2.38;;;1.38;;
54881;SDS011;40775;51.448;4.742;2023-05-07T19:46:51;2.60;;;1.38;;
54881;SDS011;40775;51.448;4.742;2023-05-07T19:49:18;2.90;;;1.63;;
54881;SDS011;40775;51.448;4.742;2023-05-07T19:51:46;5.30;;;1.67;;
54881;SDS011;40775;51.448;4.742;2023-05-07T19:54:13;2.35;;;1.20;;
54881;SDS011;40775;51.448;4.742;2023-05-07T19:56:40;2.83;;;1.60;;
54881;SDS011;40775;51.448;4.742;2023-05-07T19:59:08;2.05;;;1.00;;
54881;SDS011;40775;51.448;4.742;2023-05-07T20:01:35;2.17;;;1.23;;
54881;SDS011;40775;51.448;4.742;2023-05-07T20:04:04;2.03;;;1.10;;
54881;SDS011;40775;51.448;4.742;2023-05-07T20:06:32;2.28;;;0.95;;
54881;SDS011;40775;51.448;4.742;2023-05-07T20:08:59;1.10;;;0.80;;
54881;SDS011;40775;51.448;4.742;2023-05-07T20:11:26;2.33;;;1.25;;
54881;SDS011;40775;51.448;4.742;2023-05-07T20:13:54;3.20;;;1.48;;
54881;SDS011;40775;51.448;4.742;2023-05-07T20:16:21;2.65;;;1.30;;
54881;SDS011;40775;51.448;4.742;2023-05-07T20:18:48;1.42;;;0.70;;
54881;SDS011;40775;51.448;4.742;2023-05-07T20:21:15;2.70;;;1.40;;
54881;SDS011;40775;51.448;4.742;2023-05-07T20:23:42;2.60;;;0.85;;
54881;SDS011;40775;51.448;4.742;2023-05-07T20:26:10;1.17;;;0.90;;
54881;SDS011;40775;51.448;4.742;2023-05-07T20:28:37;2.28;;;0.70;;
54881;SDS011;40775;51.448;4.742;2023-05-07T20:31:05;2.63;;;1.30;;
54881;SDS011;40775;51.448;4.742;2023-05-07T20:33:32;2.58;;;1.15;;
54881;SDS011;40775;51.448;4.742;2023-05-07T20:35:59;1.77;;;0.85;;
54881;SDS011;40775;51.448;4.742;2023-05-07T20:38:26;2.88;;;1.17;;
54881;SDS011;40775;51.448;4.742;2023-05-07T20:40:56;2.55;;;1.00;;
54881;SDS011;40775;51.448;4.742;2023-05-07T20:43:24;2.97;;;1.23;;
54881;SDS011;40775;51.448;4.742;2023-05-07T20:45:57;7.25;;;1.33;;
54881;SDS011;40775;51.448;4.742;2023-05-07T20:48:28;1.92;;;1.08;;
54881;SDS011;40775;51.448;4.742;2023-05-07T20:50:56;2.03;;;1.10;;
54881;SDS011;40775;51.448;4.742;2023-05-07T20:53:26;2.17;;;1.23;;
54881;SDS011;40775;51.448;4.742;2023-05-07T20:55:57;1.80;;;1.05;;
54881;SDS011;40775;51.448;4.742;2023-05-07T20:58:26;2.42;;;1.13;;
54881;SDS011;40775;51.448;4.742;2023-05-07T21:00:54;4.18;;;1.50;;
54881;SDS011;40775;51.448;4.742;2023-05-07T21:03:21;3.40;;;1.35;;
54881;SDS011;40775;51.448;4.742;2023-05-07T21:05:50;1.88;;;0.90;;
54881;SDS011;40775;51.448;4.742;2023-05-07T21:08:18;1.30;;;0.90;;
54881;SDS011;40775;51.448;4.742;2023-05-07T21:10:45;2.50;;;1.52;;
54881;SDS011;40775;51.448;4.742;2023-05-07T21:13:13;2.40;;;1.45;;
54881;SDS011;40775;51.448;4.742;2023-05-07T21:15:41;2.20;;;1.42;;
54881;SDS011;40775;51.448;4.742;2023-05-07T21:18:10;3.42;;;1.17;;
54881;SDS011;40775;51.448;4.742;2023-05-07T21:20:37;2.72;;;1.33;;
54881;SDS011;40775;51.448;4.742;2023-05-07T21:23:05;2.83;;;1.02;;
54881;SDS011;40775;51.448;4.742;2023-05-07T21:25:35;2.13;;;1.10;;
54881;SDS011;40775;51.448;4.742;2023-05-07T21:28:05;2.03;;;1.17;;
54881;SDS011;40775;51.448;4.742;2023-05-07T21:30:34;1.77;;;1.10;;
54881;SDS011;40775;51.448;4.742;2023-05-07T21:33:02;1.35;;;0.93;;
54881;SDS011;40775;51.448;4.742;2023-05-07T21:35:33;3.50;;;1.50;;
54881;SDS011;40775;51.448;4.742;2023-05-07T21:38:02;1.90;;;1.02;;
54881;SDS011;40775;51.448;4.742;2023-05-07T21:40:29;2.35;;;1.35;;
54881;SDS011;40775;51.448;4.742;2023-05-07T21:42:57;2.65;;;1.40;;
54881;SDS011;40775;51.448;4.742;2023-05-07T21:45:27;1.70;;;0.98;;
54881;SDS011;40775;51.448;4.742;2023-05-07T21:47:55;3.13;;;1.30;;
54881;SDS011;40775;51.448;4.742;2023-05-07T21:50:22;2.53;;;1.50;;
54881;SDS011;40775;51.448;4.742;2023-05-07T21:52:49;2.47;;;0.98;;
54881;SDS011;40775;51.448;4.742;2023-05-07T21:55:17;3.08;;;1.70;;
54881;SDS011;40775;51.448;4.742;2023-05-07T21:57:45;3.22;;;1.65;;
54881;SDS011;40775;51.448;4.742;2023-05-07T22:00:29;2.28;;;1.40;;
54881;SDS011;40775;51.448;4.742;2023-05-07T22:02:58;2.55;;;1.30;;
54881;SDS011;40775;51.448;4.742;2023-05-07T22:05:26;3.42;;;1.60;;
54881;SDS011;40775;51.448;4.742;2023-05-07T22:07:53;3.22;;;1.60;;
54881;SDS011;40775;51.448;4.742;2023-05-07T22:10:21;3.38;;;1.83;;
54881;SDS011;40775;51.448;4.742;2023-05-07T22:12:48;2.30;;;1.52;;
54881;SDS011;40775;51.448;4.742;2023-05-07T22:15:16;5.70;;;2.20;;
54881;SDS011;40775;51.448;4.742;2023-05-07T22:17:43;2.80;;;1.52;;
54881;SDS011;40775;51.448;4.742;2023-05-07T22:20:10;2.75;;;1.23;;
54881;SDS011;40775;51.448;4.742;2023-05-07T22:25:35;2.30;;;1.67;;
54881;SDS011;40775;51.448;4.742;2023-05-07T22:28:02;3.22;;;1.67;;
54881;SDS011;40775;51.448;4.742;2023-05-07T22:30:30;2.58;;;1.52;;
54881;SDS011;40775;51.448;4.742;2023-05-07T22:32:57;3.80;;;2.00;;
54881;SDS011;40775;51.448;4.742;2023-05-07T22:35:24;4.03;;;1.73;;
54881;SDS011;40775;51.448;4.742;2023-05-07T22:37:52;3.13;;;1.85;;
54881;SDS011;40775;51.448;4.742;2023-05-07T22:40:19;2.78;;;1.58;;
54881;SDS011;40775;51.448;4.742;2023-05-07T22:42:47;3.25;;;1.90;;
54881;SDS011;40775;51.448;4.742;2023-05-07T22:45:14;3.03;;;1.65;;
54881;SDS011;40775;51.448;4.742;2023-05-07T22:47:42;2.72;;;1.65;;
54881;SDS011;40775;51.448;4.742;2023-05-07T22:50:09;4.55;;;1.92;;
54881;SDS011;40775;51.448;4.742;2023-05-07T22:52:37;2.53;;;1.35;;
54881;SDS011;40775;51.448;4.742;2023-05-07T22:55:05;3.15;;;1.88;;
54881;SDS011;40775;51.448;4.742;2023-05-07T22:57:33;3.53;;;2.10;;
54881;SDS011;40775;51.448;4.742;2023-05-07T23:00:00;4.88;;;2.53;;
54881;SDS011;40775;51.448;4.742;2023-05-07T23:02:27;3.40;;;1.92;;
54881;SDS011;40775;51.448;4.742;2023-05-07T23:04:57;3.72;;;1.98;;
54881;SDS011;40775;51.448;4.742;2023-05-07T23:07:26;3.35;;;1.52;;
54881;SDS011;40775;51.448;4.742;2023-05-07T23:09:54;3.10;;;1.70;;
54881;SDS011;40775;51.448;4.742;2023-05-07T23:12:21;3.70;;;2.08;;
54881;SDS011;40775;51.448;4.742;2023-05-07T23:14:49;3.38;;;1.95;;
54881;SDS011;40775;51.448;4.742;2023-05-07T23:17:16;3.13;;;1.90;;
54881;SDS011;40775;51.448;4.742;2023-05-07T23:19:43;4.05;;;2.30;;
54881;SDS011;40775;51.448;4.742;2023-05-07T23:22:11;4.65;;;1.58;;
54881;SDS011;40775;51.448;4.742;2023-05-07T23:24:38;4.35;;;1.77;;
54881;SDS011;40775;51.448;4.742;2023-05-07T23:27:06;3.30;;;1.73;;
54881;SDS011;40775;51.448;4.742;2023-05-07T23:29:33;6.35;;;2.20;;
54881;SDS011;40775;51.448;4.742;2023-05-07T23:32:01;4.65;;;2.25;;
54881;SDS011;40775;51.448;4.742;2023-05-07T23:34:28;3.72;;;1.83;;
54881;SDS011;40775;51.448;4.742;2023-05-07T23:36:56;4.03;;;1.95;;
54881;SDS011;40775;51.448;4.742;2023-05-07T23:39:23;4.93;;;2.10;;
54881;SDS011;40775;51.448;4.742;2023-05-07T23:41:51;4.40;;;2.10;;
54881;SDS011;40775;51.448;4.742;2023-05-07T23:44:18;2.88;;;1.98;;
54881;SDS011;40775;51.448;4.742;2023-05-07T23:46:46;3.67;;;2.08;;
54881;SDS011;40775;51.448;4.742;2023-05-07T23:49:13;3.28;;;1.65;;
54881;SDS011;40775;51.448;4.742;2023-05-07T23:51:40;3.63;;;2.03;;
54881;SDS011;40775;51.448;4.742;2023-05-07T23:54:08;2.90;;;1.88;;
54881;SDS011;40775;51.448;4.742;2023-05-07T23:56:35;4.78;;;2.03;;
54881;SDS011;40775;51.448;4.742;2023-05-07T23:59:03;3.45;;;1.95;;
